Stations météo

Publicité
Dalwhinnie, Grande-Bretagne (99005): Température de l'air & dewpoint: 15.01.2018 14:00:00 - 21.01.2018 14:00:00 (GMT)Dalwhinnie, Grande-Bretagne (99005): Quantités de précipitations: 15.01.2018 14:00:00 - 21.01.2018 14:00:00 (GMT)
Date & Time tt [°C] td [°C] rr [mm]
21.01.2018 14:00:00 -2,3 -2,9 0,0
21.01.2018 13:00:00 -2,0 -3,6 0,0
21.01.2018 12:00:00 -1,8 -4,4 0,0
21.01.2018 11:00:00 -1,9 -4,2 0,0
21.01.2018 10:00:00 -1,6 -4,4 0,0
21.01.2018 09:00:00 -1,4 -4,2 0,0
21.01.2018 08:00:00 -1,3 -4,2 0,0
21.01.2018 07:00:00 -3,4 -4,5 0,0
21.01.2018 06:00:00 -6,6 -7,3 0,0
21.01.2018 05:00:00 -7,4 -8,2 0,0
21.01.2018 04:00:00 -7,5 -8,2 0,0
21.01.2018 03:00:00 -8,4 -9,4 0,0
21.01.2018 02:00:00 -7,1 -7,9 0,0
21.01.2018 01:00:00 -8,2 -9,2 0,0
21.01.2018 00:00:00 -9,3 -10,0 0,0
20.01.2018 23:00:00 -12,9 -14,4 0,0
20.01.2018 22:00:00 -11,6 -12,6 0,0
20.01.2018 21:00:00 -10,1 -11,0 0,0
20.01.2018 20:00:00 -11,0 -12,1 0,0
20.01.2018 19:00:00 -9,1 -9,9 0,0
20.01.2018 18:00:00 -10,2 -11,2 0,0
20.01.2018 17:00:00 -9,0 -10,0 0,0
20.01.2018 16:00:00 -7,6 -8,8 0,0
20.01.2018 15:00:00 -5,6 -7,0 0,0
20.01.2018 14:00:00 -6,1 -8,4 0,0
20.01.2018 13:00:00 -5,0 -6,1 0,0
20.01.2018 12:00:00 -5,4 -5,8 0,0
20.01.2018 11:00:00 -10,0 -11,1 0,0
20.01.2018 10:00:00 -10,3 -11,5 0,0
20.01.2018 09:00:00 -9,9 -11,1 0,0
20.01.2018 08:00:00 -8,8 -9,9 0,0
20.01.2018 07:00:00 -6,7 -7,3 0,0
20.01.2018 06:00:00 -7,3 -8,0 0,0
20.01.2018 05:00:00 -6,4 -7,2 0,0
20.01.2018 04:00:00 -6,0 -7,6 0,0
20.01.2018 03:00:00 -3,4 -4,1 0,0
20.01.2018 02:00:00 -3,8 -5,1 0,0
20.01.2018 01:00:00 -2,1 -3,0 0,0
20.01.2018 00:00:00 -1,1 -1,6 0,0
19.01.2018 23:00:00 -0,9 -1,5 0,0
19.01.2018 22:00:00 -1,6 -2,3 0,0
19.01.2018 21:00:00 -1,4 -2,7 0,0
19.01.2018 20:00:00 -1,4 -2,7 0,0
19.01.2018 19:00:00 -1,7 -2,9 0,0
19.01.2018 18:00:00 -1,7 -2,7 0,0
19.01.2018 17:00:00 -1,8 -2,7 0,0
19.01.2018 16:00:00 -1,1 -2,1 0,0
19.01.2018 15:00:00 -1,2 -2,2 0,0
19.01.2018 14:00:00 -0,8 -1,6 0,0
19.01.2018 13:00:00 -1,2 -2,0 0,0
19.01.2018 12:00:00 -0,8 -1,5 0,0
19.01.2018 11:00:00 -1,3 -1,9 0,0
19.01.2018 10:00:00 -1,7 -2,2 0,0
19.01.2018 09:00:00 -1,2 -1,5 0,0
19.01.2018 08:00:00 -1,3 -1,6 0,0
19.01.2018 07:00:00 -1,7 -2,1 0,0
19.01.2018 06:00:00 -2,8 -3,4 0,0
19.01.2018 05:00:00 -2,0 -2,4 0,0
19.01.2018 04:00:00 -1,2 -1,4 0,0
19.01.2018 03:00:00 -1,2 -1,5 0,0
19.01.2018 02:00:00 -0,9 -1,3 0,0
19.01.2018 01:00:00 -0,6 -2,0 0,0
19.01.2018 00:00:00 -0,9 -2,7 0,0
18.01.2018 23:00:00 -0,5 -1,8 0,0
18.01.2018 22:00:00 -0,8 -2,1 0,0
18.01.2018 21:00:00 -0,7 -2,0 0,0
18.01.2018 20:00:00 -0,4 -2,4 0,0
18.01.2018 19:00:00 -0,5 -2,3 0,0
18.01.2018 18:00:00 -0,6 -2,1 0,0
18.01.2018 17:00:00 -0,3 -1,9 0,0
18.01.2018 16:00:00 0,0 -1,5 0,0
18.01.2018 15:00:00 0,0 -1,3 0,0
18.01.2018 14:00:00 0,4 -1,4 0,0
18.01.2018 13:00:00 0,8 -1,4 0,0
18.01.2018 12:00:00 -2,8 -4,0 0,0
18.01.2018 11:00:00 -1,3 -2,8 0,0
18.01.2018 10:00:00 -1,6 -2,9 0,0
18.01.2018 09:00:00 -2,5 -3,9 0,0
18.01.2018 08:00:00 -0,8 -2,2 0,0
18.01.2018 07:00:00 -1,0 -2,0 0,0
18.01.2018 06:00:00 -0,9 -1,7 0,0
18.01.2018 05:00:00 -3,3 -3,7 0,0
18.01.2018 04:00:00 -5,2 -5,6 0,0
18.01.2018 03:00:00 -6,2 -6,7 0,0
18.01.2018 02:00:00 -5,4 -6,0 0,0
18.01.2018 01:00:00 -4,0 -4,8 0,0
18.01.2018 00:00:00 -2,7 -3,4 0,0
17.01.2018 23:00:00 -2,6 -4,0 0,0
17.01.2018 22:00:00 -0,8 -2,2 0,0
17.01.2018 21:00:00 -1,4 -2,9 0,0
17.01.2018 20:00:00 -0,9 -1,6 0,0
17.01.2018 19:00:00 -0,5 -1,7 0,0
17.01.2018 18:00:00 -0,3 -1,3 0,0
17.01.2018 17:00:00 -0,2 -1,1 0,0
17.01.2018 16:00:00 -0,1 -0,4 0,0
17.01.2018 15:00:00 0,3 -0,2 0,0
17.01.2018 14:00:00 0,0 -0,4 0,0
17.01.2018 13:00:00 1,3 -1,0 0,0
17.01.2018 12:00:00 0,3 -0,4 0,0
17.01.2018 11:00:00 0,2 -1,5 0,0
17.01.2018 10:00:00 -0,1 -1,6 0,0
17.01.2018 09:00:00 -0,8 -1,3 0,0
17.01.2018 08:00:00 -0,9 -1,8 0,0
17.01.2018 07:00:00 -1,0 -2,6 0,0
17.01.2018 06:00:00 -0,7 -3,9 0,0
17.01.2018 05:00:00 -0,8 -3,1 0,0
17.01.2018 04:00:00 -0,6 -2,7 0,0
17.01.2018 03:00:00 -1,1 -2,6 0,0
17.01.2018 02:00:00 -2,0 -3,6 0,0
17.01.2018 01:00:00 -2,9 -3,7 0,0
17.01.2018 00:00:00 -2,2 -3,4 0,0
16.01.2018 23:00:00 -2,6 -3,2 0,0
16.01.2018 22:00:00 -2,6 -3,6 0,0
16.01.2018 21:00:00 -3,1 -3,7 0,0
16.01.2018 20:00:00 -2,5 -3,6 0,0
16.01.2018 19:00:00 -3,1 -4,5 0,0
16.01.2018 18:00:00 -2,4 -3,2 0,0
16.01.2018 17:00:00 -2,4 -3,5 0,0
16.01.2018 16:00:00 -2,1 -2,6 0,0
16.01.2018 15:00:00 -1,8 -2,4 0,0
16.01.2018 14:00:00 -1,8 -2,9 0,0
16.01.2018 13:00:00 -1,3 -2,3 0,0
16.01.2018 12:00:00 -1,0 -3,3 0,0
16.01.2018 11:00:00 -1,3 -3,3 0,0
16.01.2018 10:00:00 -1,0 -1,6 0,0
16.01.2018 09:00:00 -1,3 -1,6 0,0
16.01.2018 08:00:00 -1,6 -2,1 0,0
16.01.2018 07:00:00 -1,1 -2,6 0,0
16.01.2018 06:00:00 -1,2 -1,8 0,0
16.01.2018 05:00:00 -1,3 -2,0 0,0
16.01.2018 04:00:00 -1,2 -1,7 0,0
16.01.2018 03:00:00 -1,2 -2,1 0,0
16.01.2018 02:00:00 -1,3 -2,1 0,0
16.01.2018 01:00:00 -0,8 -1,6 0,0
16.01.2018 00:00:00 -1,4 -1,9 0,0
15.01.2018 23:00:00 -0,4 -1,8 0,0
15.01.2018 22:00:00 -1,0 -1,4 0,0
15.01.2018 21:00:00 0,0 -0,7 0,0
15.01.2018 20:00:00 -0,2 -0,8 0,0
15.01.2018 19:00:00 0,0 -1,2 0,0
15.01.2018 18:00:00 0,3 -0,6 0,2
15.01.2018 17:00:00 0,3 -0,4 0,2
15.01.2018 16:00:00 1,0 -0,4 0,2
15.01.2018 15:00:00 1,3 -0,3 0,4
15.01.2018 14:00:00 2,3 -0,7 0,0

tt = Température de l'air
td = dewpoint
rr = Quantités de précipitations

stations d'obs. à proximité